RYE5618 LOWW-EYVI
Flight info
| Callsign | RYE5618 |
|---|---|
| Flight time | 1h 23m |
| Altitude | 39000 |
| Route | LEDVA DCT KATQA DCT OGDAS DCT BAVOK DCT EVINA DCT ORBUZ DCT UNPEG DCT OFEDE DCT LIZUP DCT DIMTA |
| Aircraft | B738/M-SDE2E3FGHIRWXY/LB1 |
Departure
| Time | 2026-05-09 05:39 |
|---|---|
| Airport | Vienna International Airport (LOWW) |
Arrival
| Time | 2026-05-09 07:02 |
|---|---|
| Airport | Vilnius International Airport (EYVI) |
| Time | Latitude | Longitude | Altitude | Speed | Heading |
|---|---|---|---|---|---|
| 2026-05-09 05:15 | 48.11478 | 16.57023 | 603 ft | 0 kts | 206° |
| 2026-05-09 05:36 | 48.11478 | 16.57022 | 603 ft | 0 kts | 206° |
| 2026-05-09 05:36 | 48.11466 | 16.57027 | 603 ft | 4 kts | 145° |
| 2026-05-09 05:36 | 48.11445 | 16.57068 | 615 ft | 5 kts | 129° |
| 2026-05-09 05:37 | 48.11413 | 16.57094 | 616 ft | 6 kts | 166° |
| 2026-05-09 05:37 | 48.11360 | 16.57087 | 605 ft | 9 kts | 200° |
| 2026-05-09 05:37 | 48.11276 | 16.57109 | 605 ft | 18 kts | 143° |
| 2026-05-09 05:37 | 48.11207 | 16.57282 | 609 ft | 20 kts | 116° |
| 2026-05-09 05:38 | 48.11143 | 16.57480 | 603 ft | 22 kts | 115° |
| 2026-05-09 05:38 | 48.11055 | 16.57644 | 602 ft | 21 kts | 177° |
| 2026-05-09 05:38 | 48.10932 | 16.57546 | 607 ft | 20 kts | 241° |
| 2026-05-09 05:38 | 48.10939 | 16.57454 | 604 ft | 0 kts | 296° |
| 2026-05-09 05:39 | 48.10967 | 16.57366 | 614 ft | 40 kts | 296° |
| 2026-05-09 05:39 | 48.11220 | 16.56593 | 613 ft | 123 kts | 296° |
| 2026-05-09 05:39 | 48.11687 | 16.55209 | 924 ft | 161 kts | 298° |
| 2026-05-09 05:39 | 48.12202 | 16.53661 | 1796 ft | 168 kts | 289° |
| 2026-05-09 05:40 | 48.12394 | 16.51931 | 2774 ft | 173 kts | 276° |
| 2026-05-09 05:40 | 48.12261 | 16.50060 | 3523 ft | 191 kts | 256° |
| 2026-05-09 05:40 | 48.11885 | 16.47982 | 3894 ft | 223 kts | 255° |
| 2026-05-09 05:40 | 48.11548 | 16.45517 | 4152 ft | 258 kts | 270° |
| 2026-05-09 05:41 | 48.11815 | 16.42854 | 5043 ft | 263 kts | 282° |
| 2026-05-09 05:41 | 48.12186 | 16.40147 | 6007 ft | 267 kts | 281° |
| 2026-05-09 05:41 | 48.12542 | 16.37406 | 7004 ft | 270 kts | 280° |
| 2026-05-09 05:41 | 48.12872 | 16.34659 | 7945 ft | 274 kts | 279° |
| 2026-05-09 05:42 | 48.13194 | 16.31829 | 8894 ft | 277 kts | 282° |
| 2026-05-09 05:42 | 48.14037 | 16.29237 | 9670 ft | 283 kts | 313° |
| 2026-05-09 05:42 | 48.15691 | 16.27624 | 10488 ft | 293 kts | 338° |
| 2026-05-09 05:42 | 48.17779 | 16.27135 | 10968 ft | 316 kts | 1° |
| 2026-05-09 05:43 | 48.19962 | 16.27803 | 11757 ft | 326 kts | 19° |
| 2026-05-09 05:43 | 48.21993 | 16.29355 | 12695 ft | 330 kts | 29° |
| 2026-05-09 05:43 | 48.23939 | 16.31232 | 13586 ft | 335 kts | 32° |
| 2026-05-09 05:43 | 48.25885 | 16.33214 | 14424 ft | 341 kts | 32° |
| 2026-05-09 05:44 | 48.27867 | 16.35231 | 15282 ft | 346 kts | 32° |
| 2026-05-09 05:44 | 48.29885 | 16.37251 | 16137 ft | 351 kts | 31° |
| 2026-05-09 05:44 | 48.31943 | 16.39281 | 16965 ft | 356 kts | 31° |
| 2026-05-09 05:44 | 48.34032 | 16.41318 | 17780 ft | 361 kts | 31° |
| 2026-05-09 05:45 | 48.36164 | 16.43381 | 18564 ft | 366 kts | 31° |
| 2026-05-09 05:45 | 48.38321 | 16.45460 | 19328 ft | 371 kts | 31° |
| 2026-05-09 05:45 | 48.40508 | 16.47564 | 20068 ft | 376 kts | 31° |
| 2026-05-09 05:45 | 48.42723 | 16.49695 | 20777 ft | 381 kts | 31° |
| 2026-05-09 05:46 | 48.44967 | 16.51855 | 21501 ft | 385 kts | 31° |
| 2026-05-09 05:46 | 48.47238 | 16.54044 | 22164 ft | 390 kts | 31° |
| 2026-05-09 05:46 | 48.49540 | 16.56264 | 22817 ft | 395 kts | 31° |
| 2026-05-09 05:46 | 48.51843 | 16.58487 | 23455 ft | 399 kts | 31° |
| 2026-05-09 05:47 | 48.54196 | 16.60761 | 24057 ft | 404 kts | 31° |
| 2026-05-09 05:47 | 48.56574 | 16.63063 | 24620 ft | 409 kts | 31° |
| 2026-05-09 05:47 | 48.58985 | 16.65400 | 25180 ft | 414 kts | 31° |
| 2026-05-09 05:47 | 48.61418 | 16.67760 | 25732 ft | 418 kts | 31° |
| 2026-05-09 05:48 | 48.63882 | 16.70153 | 26235 ft | 423 kts | 31° |
| 2026-05-09 05:48 | 48.66377 | 16.72579 | 26705 ft | 429 kts | 31° |
| 2026-05-09 05:48 | 48.68898 | 16.75034 | 27188 ft | 433 kts | 31° |
| 2026-05-09 05:48 | 48.71440 | 16.77514 | 27670 ft | 437 kts | 32° |
| 2026-05-09 05:49 | 48.73889 | 16.80302 | 28118 ft | 443 kts | 41° |
| 2026-05-09 05:49 | 48.76094 | 16.83573 | 28562 ft | 447 kts | 45° |
| 2026-05-09 05:49 | 48.78270 | 16.86994 | 28998 ft | 451 kts | 46° |
| 2026-05-09 05:49 | 48.80442 | 16.90455 | 29436 ft | 454 kts | 46° |
| 2026-05-09 05:50 | 48.82638 | 16.93939 | 29814 ft | 459 kts | 46° |
| 2026-05-09 05:50 | 48.84863 | 16.97438 | 30192 ft | 463 kts | 45° |
| 2026-05-09 05:50 | 48.87112 | 17.00950 | 30584 ft | 466 kts | 45° |
| 2026-05-09 05:50 | 48.89380 | 17.04481 | 30969 ft | 468 kts | 45° |
| 2026-05-09 05:51 | 48.91660 | 17.08029 | 31351 ft | 471 kts | 45° |
| 2026-05-09 05:51 | 48.93954 | 17.11603 | 31726 ft | 473 kts | 45° |
| 2026-05-09 05:51 | 48.96257 | 17.15198 | 32075 ft | 475 kts | 45° |
| 2026-05-09 05:51 | 48.98566 | 17.18809 | 32421 ft | 477 kts | 45° |
| 2026-05-09 05:52 | 49.00881 | 17.22430 | 32864 ft | 477 kts | 45° |
| 2026-05-09 05:52 | 49.03345 | 17.25800 | 33321 ft | 474 kts | 36° |
| 2026-05-09 05:52 | 49.06015 | 17.28732 | 33755 ft | 473 kts | 33° |
| 2026-05-09 05:52 | 49.08730 | 17.31571 | 34173 ft | 472 kts | 33° |
| 2026-05-09 05:53 | 49.11449 | 17.34378 | 34588 ft | 471 kts | 33° |
| 2026-05-09 05:53 | 49.14157 | 17.37183 | 34972 ft | 471 kts | 33° |
| 2026-05-09 05:53 | 49.16863 | 17.40015 | 35328 ft | 471 kts | 33° |
| 2026-05-09 05:53 | 49.19548 | 17.42853 | 35733 ft | 470 kts | 33° |
| 2026-05-09 05:54 | 49.22225 | 17.45704 | 36151 ft | 468 kts | 33° |
| 2026-05-09 05:54 | 49.24888 | 17.48553 | 36504 ft | 467 kts | 33° |
| 2026-05-09 05:54 | 49.27554 | 17.51413 | 36827 ft | 467 kts | 33° |
| 2026-05-09 05:54 | 49.30198 | 17.54255 | 37379 ft | 461 kts | 33° |
| 2026-05-09 05:55 | 49.32799 | 17.57057 | 37937 ft | 454 kts | 33° |
| 2026-05-09 05:55 | 49.35385 | 17.59842 | 38228 ft | 454 kts | 33° |
| 2026-05-09 05:55 | 49.37974 | 17.62628 | 38476 ft | 455 kts | 33° |
| 2026-05-09 05:55 | 49.40575 | 17.65433 | 38717 ft | 457 kts | 33° |
| 2026-05-09 05:56 | 49.43170 | 17.68236 | 38993 ft | 456 kts | 33° |
| 2026-05-09 05:56 | 49.45765 | 17.71043 | 39181 ft | 458 kts | 33° |
| 2026-05-09 05:56 | 49.51011 | 17.76729 | 39169 ft | 462 kts | 33° |
| 2026-05-09 05:57 | 49.56226 | 17.82399 | 39165 ft | 455 kts | 33° |
| 2026-05-09 05:57 | 49.61376 | 17.88011 | 39182 ft | 453 kts | 33° |
| 2026-05-09 05:58 | 49.66490 | 17.93597 | 39185 ft | 453 kts | 33° |
| 2026-05-09 05:58 | 49.71750 | 17.98948 | 39179 ft | 450 kts | 24° |
| 2026-05-09 05:59 | 49.77422 | 18.03037 | 39184 ft | 451 kts | 21° |
| 2026-05-09 05:59 | 49.83139 | 18.07055 | 39178 ft | 452 kts | 22° |
| 2026-05-09 06:00 | 49.88835 | 18.11167 | 39186 ft | 452 kts | 22° |
| 2026-05-09 06:00 | 49.94544 | 18.15335 | 39193 ft | 453 kts | 22° |
| 2026-05-09 06:01 | 50.00164 | 18.19812 | 39169 ft | 456 kts | 31° |
| 2026-05-09 06:01 | 50.04998 | 18.26252 | 39181 ft | 460 kts | 42° |
| 2026-05-09 06:02 | 50.09523 | 18.33208 | 39175 ft | 460 kts | 43° |
| 2026-05-09 06:02 | 50.14084 | 18.40223 | 39176 ft | 461 kts | 43° |
| 2026-05-09 06:03 | 50.18702 | 18.47250 | 39170 ft | 461 kts | 42° |
| 2026-05-09 06:03 | 50.23265 | 18.54167 | 39164 ft | 460 kts | 42° |
| 2026-05-09 06:04 | 50.27884 | 18.61184 | 39161 ft | 459 kts | 42° |
| 2026-05-09 06:04 | 50.32426 | 18.68096 | 39166 ft | 458 kts | 42° |
| 2026-05-09 06:05 | 50.36985 | 18.75061 | 39160 ft | 458 kts | 43° |
| 2026-05-09 06:05 | 50.41534 | 18.82034 | 39156 ft | 457 kts | 43° |
| 2026-05-09 06:06 | 50.46078 | 18.89015 | 39157 ft | 457 kts | 43° |
| 2026-05-09 06:06 | 50.50611 | 18.96001 | 39156 ft | 456 kts | 43° |
| 2026-05-09 06:07 | 50.55137 | 19.03005 | 39155 ft | 456 kts | 43° |
| 2026-05-09 06:07 | 50.59660 | 19.10015 | 39158 ft | 456 kts | 43° |
| 2026-05-09 06:08 | 50.64184 | 19.17044 | 39162 ft | 456 kts | 43° |
| 2026-05-09 06:08 | 50.68690 | 19.24068 | 39157 ft | 456 kts | 43° |
| 2026-05-09 06:09 | 50.73204 | 19.31124 | 39156 ft | 456 kts | 43° |
| 2026-05-09 06:09 | 50.77706 | 19.38187 | 39156 ft | 456 kts | 43° |
| 2026-05-09 06:10 | 50.82207 | 19.45262 | 39160 ft | 456 kts | 43° |
| 2026-05-09 06:10 | 50.86706 | 19.52353 | 39164 ft | 456 kts | 43° |
| 2026-05-09 06:11 | 50.91199 | 19.59460 | 39168 ft | 456 kts | 44° |
| 2026-05-09 06:11 | 50.95682 | 19.66571 | 39165 ft | 456 kts | 44° |
| 2026-05-09 06:12 | 51.00127 | 19.73642 | 39166 ft | 455 kts | 44° |
| 2026-05-09 06:12 | 51.04620 | 19.80808 | 39169 ft | 455 kts | 44° |
| 2026-05-09 06:13 | 51.09083 | 19.87949 | 39165 ft | 455 kts | 44° |
| 2026-05-09 06:13 | 51.13514 | 19.95056 | 39168 ft | 455 kts | 44° |
| 2026-05-09 06:14 | 51.17973 | 20.02235 | 39167 ft | 456 kts | 44° |
| 2026-05-09 06:14 | 51.22430 | 20.09431 | 39166 ft | 456 kts | 44° |
| 2026-05-09 06:15 | 51.26883 | 20.16638 | 39167 ft | 457 kts | 44° |
| 2026-05-09 06:15 | 51.31340 | 20.23877 | 39169 ft | 457 kts | 44° |
| 2026-05-09 06:16 | 51.35792 | 20.31123 | 39166 ft | 457 kts | 44° |
| 2026-05-09 06:16 | 51.40540 | 20.37867 | 39157 ft | 454 kts | 30° |
| 2026-05-09 06:17 | 51.45919 | 20.43019 | 39161 ft | 454 kts | 28° |
| 2026-05-09 06:17 | 51.51382 | 20.48089 | 39166 ft | 454 kts | 28° |
| 2026-05-09 06:18 | 51.56823 | 20.53220 | 39166 ft | 454 kts | 28° |
| 2026-05-09 06:18 | 51.62255 | 20.58418 | 39170 ft | 454 kts | 28° |
| 2026-05-09 06:19 | 51.66802 | 20.62798 | 39164 ft | 455 kts | 28° |
| 2026-05-09 06:19 | 51.72191 | 20.68002 | 39166 ft | 455 kts | 28° |
| 2026-05-09 06:20 | 51.77615 | 20.73250 | 39158 ft | 455 kts | 28° |
| 2026-05-09 06:20 | 51.83039 | 20.78515 | 39156 ft | 454 kts | 29° |
| 2026-05-09 06:21 | 51.88448 | 20.83779 | 39159 ft | 454 kts | 29° |
| 2026-05-09 06:21 | 51.93856 | 20.89057 | 39157 ft | 453 kts | 29° |
| 2026-05-09 06:22 | 51.99253 | 20.94338 | 39156 ft | 453 kts | 29° |
| 2026-05-09 06:22 | 52.04649 | 20.99633 | 39161 ft | 452 kts | 29° |
| 2026-05-09 06:23 | 52.10031 | 21.04932 | 39154 ft | 452 kts | 29° |
| 2026-05-09 06:23 | 52.15404 | 21.10235 | 39159 ft | 451 kts | 29° |
| 2026-05-09 06:24 | 52.20767 | 21.15544 | 39156 ft | 451 kts | 29° |
| 2026-05-09 06:24 | 52.26121 | 21.20860 | 39157 ft | 450 kts | 29° |
| 2026-05-09 06:25 | 52.31477 | 21.26192 | 39157 ft | 450 kts | 29° |
| 2026-05-09 06:25 | 52.36824 | 21.31530 | 39156 ft | 451 kts | 30° |
| 2026-05-09 06:26 | 52.42179 | 21.36891 | 39157 ft | 451 kts | 30° |
| 2026-05-09 06:26 | 52.47526 | 21.42263 | 39155 ft | 451 kts | 30° |
| 2026-05-09 06:27 | 52.52494 | 21.48565 | 39165 ft | 452 kts | 40° |
| 2026-05-09 06:27 | 52.57138 | 21.55550 | 39153 ft | 453 kts | 41° |
| 2026-05-09 06:28 | 52.61775 | 21.62560 | 39158 ft | 453 kts | 41° |
| 2026-05-09 06:28 | 52.66400 | 21.69486 | 39157 ft | 453 kts | 41° |
| 2026-05-09 06:29 | 52.71072 | 21.76459 | 39159 ft | 453 kts | 41° |
| 2026-05-09 06:29 | 52.75737 | 21.83435 | 39155 ft | 453 kts | 41° |
| 2026-05-09 06:30 | 52.80395 | 21.90427 | 39149 ft | 453 kts | 41° |
| 2026-05-09 06:30 | 52.85059 | 21.97448 | 39148 ft | 452 kts | 41° |
| 2026-05-09 06:31 | 52.89706 | 22.04466 | 39148 ft | 452 kts | 41° |
| 2026-05-09 06:31 | 52.94349 | 22.11499 | 39148 ft | 452 kts | 41° |
| 2026-05-09 06:32 | 52.98983 | 22.18540 | 39146 ft | 452 kts | 41° |
| 2026-05-09 06:33 | 53.05920 | 22.29122 | 39145 ft | 452 kts | 41° |
| 2026-05-09 06:33 | 53.10550 | 22.36206 | 39142 ft | 451 kts | 41° |
| 2026-05-09 06:34 | 53.17467 | 22.46843 | 39122 ft | 451 kts | 41° |
| 2026-05-09 06:34 | 53.22075 | 22.53950 | 39020 ft | 453 kts | 41° |
| 2026-05-09 06:35 | 53.24398 | 22.57528 | 38585 ft | 454 kts | 40° |
| 2026-05-09 06:35 | 53.26865 | 22.60756 | 38054 ft | 449 kts | 31° |
| 2026-05-09 06:35 | 53.29562 | 22.63357 | 37540 ft | 447 kts | 27° |
| 2026-05-09 06:35 | 53.32295 | 22.65828 | 36982 ft | 446 kts | 26° |
| 2026-05-09 06:36 | 53.35038 | 22.68274 | 36447 ft | 445 kts | 26° |
| 2026-05-09 06:36 | 53.37716 | 22.70673 | 36058 ft | 441 kts | 26° |
| 2026-05-09 06:36 | 53.40403 | 22.73104 | 35609 ft | 438 kts | 26° |
| 2026-05-09 06:36 | 53.43073 | 22.75544 | 35185 ft | 435 kts | 27° |
| 2026-05-09 06:37 | 53.45747 | 22.78005 | 34760 ft | 432 kts | 27° |
| 2026-05-09 06:37 | 53.48337 | 22.80401 | 34346 ft | 429 kts | 27° |
| 2026-05-09 06:37 | 53.50940 | 22.82815 | 33926 ft | 426 kts | 27° |
| 2026-05-09 06:37 | 53.53523 | 22.85213 | 33519 ft | 423 kts | 27° |
| 2026-05-09 06:38 | 53.56088 | 22.87599 | 33109 ft | 420 kts | 27° |
| 2026-05-09 06:38 | 53.58635 | 22.89972 | 32701 ft | 417 kts | 27° |
| 2026-05-09 06:38 | 53.61168 | 22.92336 | 32295 ft | 414 kts | 27° |
| 2026-05-09 06:38 | 53.63673 | 22.94677 | 31897 ft | 411 kts | 27° |
| 2026-05-09 06:39 | 53.66171 | 22.97012 | 31500 ft | 408 kts | 27° |
| 2026-05-09 06:39 | 53.68646 | 22.99329 | 31106 ft | 406 kts | 27° |
| 2026-05-09 06:39 | 53.71110 | 23.01639 | 30705 ft | 403 kts | 27° |
| 2026-05-09 06:39 | 53.73553 | 23.03930 | 30310 ft | 401 kts | 27° |
| 2026-05-09 06:40 | 53.75979 | 23.06210 | 29916 ft | 398 kts | 27° |
| 2026-05-09 06:40 | 53.78389 | 23.08478 | 29514 ft | 395 kts | 27° |
| 2026-05-09 06:40 | 53.80779 | 23.10732 | 29103 ft | 392 kts | 27° |
| 2026-05-09 06:40 | 53.83153 | 23.12973 | 28693 ft | 389 kts | 27° |
| 2026-05-09 06:41 | 53.85512 | 23.15204 | 28285 ft | 387 kts | 27° |
| 2026-05-09 06:41 | 53.87849 | 23.17416 | 27870 ft | 384 kts | 27° |
| 2026-05-09 06:41 | 53.90175 | 23.19619 | 27458 ft | 381 kts | 27° |
| 2026-05-09 06:41 | 53.92418 | 23.22047 | 26770 ft | 388 kts | 38° |
| 2026-05-09 06:42 | 53.94307 | 23.25321 | 26250 ft | 388 kts | 51° |
| 2026-05-09 06:42 | 53.95769 | 23.29161 | 25771 ft | 387 kts | 61° |
| 2026-05-09 06:42 | 53.97022 | 23.33117 | 25325 ft | 384 kts | 62° |
| 2026-05-09 06:42 | 53.98283 | 23.37169 | 24887 ft | 381 kts | 62° |
| 2026-05-09 06:43 | 53.99513 | 23.41128 | 24443 ft | 377 kts | 62° |
| 2026-05-09 06:43 | 54.00737 | 23.45053 | 23999 ft | 374 kts | 62° |
| 2026-05-09 06:43 | 54.01953 | 23.48932 | 23574 ft | 370 kts | 62° |
| 2026-05-09 06:43 | 54.03163 | 23.52780 | 23148 ft | 367 kts | 62° |
| 2026-05-09 06:44 | 54.04346 | 23.56537 | 22729 ft | 363 kts | 62° |
| 2026-05-09 06:44 | 54.05533 | 23.60307 | 22311 ft | 360 kts | 62° |
| 2026-05-09 06:44 | 54.06707 | 23.64042 | 21897 ft | 356 kts | 62° |
| 2026-05-09 06:44 | 54.07870 | 23.67744 | 21482 ft | 353 kts | 62° |
| 2026-05-09 06:45 | 54.09020 | 23.71410 | 21074 ft | 349 kts | 62° |
| 2026-05-09 06:45 | 54.10156 | 23.75037 | 20671 ft | 346 kts | 63° |
| 2026-05-09 06:45 | 54.11287 | 23.78656 | 20265 ft | 344 kts | 63° |
| 2026-05-09 06:45 | 54.12405 | 23.82235 | 19878 ft | 341 kts | 63° |
| 2026-05-09 06:46 | 54.13511 | 23.85784 | 19477 ft | 338 kts | 63° |
| 2026-05-09 06:46 | 54.14610 | 23.89317 | 19083 ft | 336 kts | 63° |
| 2026-05-09 06:46 | 54.15700 | 23.92826 | 18687 ft | 333 kts | 63° |
| 2026-05-09 06:46 | 54.16780 | 23.96305 | 18295 ft | 331 kts | 63° |
| 2026-05-09 06:47 | 54.17855 | 23.99772 | 17897 ft | 329 kts | 63° |
| 2026-05-09 06:47 | 54.18922 | 24.03221 | 17520 ft | 327 kts | 63° |
| 2026-05-09 06:47 | 54.19980 | 24.06646 | 17135 ft | 325 kts | 63° |
| 2026-05-09 06:47 | 54.21029 | 24.10046 | 16761 ft | 323 kts | 63° |
| 2026-05-09 06:48 | 54.22073 | 24.13436 | 16384 ft | 321 kts | 63° |
| 2026-05-09 06:48 | 54.23110 | 24.16805 | 16009 ft | 319 kts | 63° |
| 2026-05-09 06:48 | 54.24139 | 24.20153 | 15637 ft | 317 kts | 63° |
| 2026-05-09 06:48 | 54.25162 | 24.23486 | 15270 ft | 315 kts | 63° |
| 2026-05-09 06:49 | 54.26179 | 24.26801 | 14904 ft | 314 kts | 63° |
| 2026-05-09 06:49 | 54.27187 | 24.30095 | 14544 ft | 312 kts | 63° |
| 2026-05-09 06:49 | 54.28406 | 24.33125 | 14164 ft | 311 kts | 44° |
| 2026-05-09 06:49 | 54.30199 | 24.35196 | 13666 ft | 313 kts | 25° |
| 2026-05-09 06:50 | 54.32182 | 24.36712 | 13263 ft | 312 kts | 23° |
| 2026-05-09 06:50 | 54.34171 | 24.38170 | 12897 ft | 310 kts | 23° |
| 2026-05-09 06:50 | 54.36147 | 24.39619 | 12527 ft | 308 kts | 23° |
| 2026-05-09 06:50 | 54.38107 | 24.41074 | 12164 ft | 306 kts | 24° |
| 2026-05-09 06:51 | 54.40050 | 24.42532 | 11785 ft | 304 kts | 24° |
| 2026-05-09 06:51 | 54.41983 | 24.43992 | 11427 ft | 302 kts | 24° |
| 2026-05-09 06:51 | 54.43893 | 24.45442 | 11088 ft | 299 kts | 24° |
| 2026-05-09 06:51 | 54.45784 | 24.46880 | 10778 ft | 295 kts | 24° |
| 2026-05-09 06:52 | 54.47654 | 24.48306 | 10465 ft | 292 kts | 24° |
| 2026-05-09 06:52 | 54.49495 | 24.49711 | 10175 ft | 288 kts | 24° |
| 2026-05-09 06:52 | 54.51284 | 24.51115 | 10035 ft | 278 kts | 30° |
| 2026-05-09 06:52 | 54.52690 | 24.53329 | 9720 ft | 274 kts | 57° |
| 2026-05-09 06:53 | 54.53448 | 24.56309 | 9414 ft | 272 kts | 74° |
| 2026-05-09 06:53 | 54.53910 | 24.59457 | 9102 ft | 271 kts | 76° |
| 2026-05-09 06:53 | 54.54426 | 24.63269 | 8717 ft | 269 kts | 76° |
| 2026-05-09 06:53 | 54.55267 | 24.69428 | 8094 ft | 266 kts | 76° |
| 2026-05-09 06:54 | 54.56140 | 24.75676 | 7461 ft | 262 kts | 76° |
| 2026-05-09 06:54 | 54.56993 | 24.81734 | 6850 ft | 259 kts | 76° |
| 2026-05-09 06:54 | 54.57836 | 24.87733 | 6235 ft | 256 kts | 77° |
| 2026-05-09 06:54 | 54.58246 | 24.91375 | 5991 ft | 246 kts | 91° |
| 2026-05-09 06:55 | 54.57857 | 24.94166 | 5864 ft | 239 kts | 115° |
| 2026-05-09 06:55 | 54.56875 | 24.96458 | 5610 ft | 239 kts | 136° |
| 2026-05-09 06:55 | 54.55525 | 24.98125 | 5308 ft | 240 kts | 145° |
| 2026-05-09 06:55 | 54.52911 | 25.00834 | 4872 ft | 235 kts | 146° |
| 2026-05-09 06:56 | 54.50507 | 25.03345 | 4661 ft | 222 kts | 146° |
| 2026-05-09 06:56 | 54.49213 | 25.04706 | 4570 ft | 214 kts | 145° |
| 2026-05-09 06:56 | 54.48204 | 25.06446 | 4469 ft | 201 kts | 116° |
| 2026-05-09 06:56 | 54.47636 | 25.08560 | 4423 ft | 189 kts | 110° |
| 2026-05-09 06:57 | 54.47151 | 25.10608 | 4247 ft | 184 kts | 110° |
| 2026-05-09 06:57 | 54.46679 | 25.12613 | 4057 ft | 179 kts | 110° |
| 2026-05-09 06:57 | 54.46338 | 25.14613 | 3853 ft | 172 kts | 88° |
| 2026-05-09 06:57 | 54.46702 | 25.16475 | 3704 ft | 162 kts | 54° |
| 2026-05-09 06:58 | 54.47576 | 25.17600 | 3535 ft | 157 kts | 24° |
| 2026-05-09 06:58 | 54.48558 | 25.18265 | 3362 ft | 147 kts | 24° |
| 2026-05-09 06:58 | 54.49466 | 25.18898 | 3245 ft | 135 kts | 24° |
| 2026-05-09 06:58 | 54.50350 | 25.19502 | 3103 ft | 137 kts | 24° |
| 2026-05-09 06:59 | 54.51229 | 25.20111 | 2935 ft | 136 kts | 24° |
| 2026-05-09 06:59 | 54.52085 | 25.20704 | 2764 ft | 131 kts | 24° |
| 2026-05-09 06:59 | 54.52928 | 25.21294 | 2590 ft | 130 kts | 25° |
| 2026-05-09 06:59 | 54.53754 | 25.21885 | 2423 ft | 128 kts | 22° |
| 2026-05-09 07:00 | 54.54583 | 25.22445 | 2257 ft | 127 kts | 23° |
| 2026-05-09 07:00 | 54.55402 | 25.23011 | 2088 ft | 126 kts | 22° |
| 2026-05-09 07:00 | 54.56211 | 25.23575 | 1919 ft | 125 kts | 22° |
| 2026-05-09 07:00 | 54.57012 | 25.24128 | 1753 ft | 123 kts | 22° |
| 2026-05-09 07:01 | 54.57795 | 25.24674 | 1591 ft | 121 kts | 21° |
| 2026-05-09 07:01 | 54.58567 | 25.25234 | 1437 ft | 120 kts | 18° |
| 2026-05-09 07:01 | 54.59355 | 25.25745 | 1272 ft | 122 kts | 25° |
| 2026-05-09 07:01 | 54.60144 | 25.26318 | 1114 ft | 123 kts | 21° |
| 2026-05-09 07:02 | 54.60936 | 25.26856 | 941 ft | 123 kts | 21° |
| 2026-05-09 07:02 | 54.61730 | 25.27397 | 752 ft | 125 kts | 21° |
| 2026-05-09 07:02 | 54.62549 | 25.27966 | 624 ft | 122 kts | 21° |
| 2026-05-09 07:02 | 54.63167 | 25.28394 | 628 ft | 49 kts | 22° |
| 2026-05-09 07:03 | 54.63307 | 25.28493 | 632 ft | 17 kts | 22° |
| 2026-05-09 07:03 | 54.63413 | 25.28569 | 633 ft | 16 kts | 22° |
| 2026-05-09 07:03 | 54.63515 | 25.28642 | 634 ft | 16 kts | 22° |
| 2026-05-09 07:03 | 54.63613 | 25.28712 | 638 ft | 15 kts | 22° |
| 2026-05-09 07:04 | 54.63711 | 25.28751 | 638 ft | 14 kts | 3° |
| 2026-05-09 07:04 | 54.63808 | 25.28737 | 639 ft | 14 kts | 352° |
| 2026-05-09 07:04 | 54.63901 | 25.28714 | 643 ft | 13 kts | 352° |
| 2026-05-09 07:04 | 54.63971 | 25.28697 | 645 ft | 0 kts | 352° |